Time;durP1;ratioP1;P1;durP2;ratioP2;P2;SDS_P1;SDS_P2;PMS_P1;PMS_P2;Temp;Humidity;BMP_temperature;BMP_pressure;BME280_temperature;BME280_humidity;BME280_pressure;Samples;Min_cycle;Max_cycle;Signal;HPM_P1;HPM_P2
2022/06/03 00:00:23;;;;;;;2.85;2.55;;;12.90;99.90;;;;;;4892504;29;20588;-81
2022/06/03 00:03:11;;;;;;;3.10;2.30;;;12.80;99.90;;;;;;4900036;29;20209;-81
2022/06/03 00:05:57;;;;;;;3.60;2.08;;;12.90;99.90;;;;;;4876559;29;20191;-81
2022/06/03 00:08:53;;;;;;;3.00;2.70;;;13.00;99.90;;;;;;4873506;29;20644;-81
2022/06/03 00:11:31;;;;;;;3.55;2.50;;;12.90;99.90;;;;;;4880691;29;20206;-81
2022/06/03 00:14:23;;;;;;;5.35;2.13;;;12.90;99.90;;;;;;4883476;29;20200;-81
2022/06/03 00:17:06;;;;;;;6.40;2.45;;;12.90;99.90;;;;;;4883100;29;20183;-81
2022/06/03 00:19:53;;;;;;;2.17;2.03;;;12.90;99.90;;;;;;4881629;29;20788;-82
2022/06/03 00:22:36;;;;;;;4.35;2.40;;;12.80;99.90;;;;;;4879589;29;20692;-80
2022/06/03 00:25:26;;;;;;;2.92;2.50;;;12.80;99.90;;;;;;4884053;29;20663;-81
2022/06/03 00:28:11;;;;;;;2.90;2.42;;;12.80;99.90;;;;;;4884315;29;20522;-81
2022/06/03 00:31:01;;;;;;;4.15;2.40;;;12.80;99.90;;;;;;4880156;29;20198;-80
2022/06/03 00:33:36;;;;;;;2.80;2.55;;;12.70;99.90;;;;;;4880801;29;20217;-82
2022/06/03 00:36:20;;;;;;;10.93;2.80;;;12.70;99.90;;;;;;4886386;29;20178;-82
2022/06/03 00:39:29;;;;;;;3.90;2.50;;;12.80;99.90;;;;;;4882719;29;20206;-81
2022/06/03 00:42:21;;;;;;;2.35;2.15;;;12.80;99.90;;;;;;4874959;29;20218;-82
2022/06/03 00:45:24;;;;;;;2.50;2.30;;;12.80;99.90;;;;;;4882785;29;20187;-82
2022/06/03 00:48:10;;;;;;;6.32;2.53;;;12.70;99.90;;;;;;4882787;29;20581;-82
2022/06/03 00:50:55;;;;;;;9.35;2.80;;;12.70;99.90;;;;;;4879140;29;20208;-82
2022/06/03 00:53:45;;;;;;;3.83;2.65;;;12.70;99.90;;;;;;4880082;29;20179;-83
2022/06/03 00:56:38;;;;;;;2.40;2.20;;;12.70;99.90;;;;;;4897719;29;20247;-82
2022/06/03 00:59:20;;;;;;;2.63;2.40;;;12.70;99.90;;;;;;4895904;29;20187;-82
2022/06/03 01:02:03;;;;;;;2.72;2.40;;;12.70;99.90;;;;;;4887999;29;20341;-80
2022/06/03 01:04:51;;;;;;;2.83;2.63;;;12.70;99.90;;;;;;4875032;29;20316;-81
2022/06/03 01:07:32;;;;;;;2.75;2.30;;;12.70;99.90;;;;;;4880325;29;20187;-81
2022/06/03 01:10:27;;;;;;;3.15;2.33;;;12.70;99.90;;;;;;4877259;29;20202;-81
2022/06/03 01:12:56;;;;;;;5.18;3.10;;;12.70;99.90;;;;;;4875834;29;20248;-81
2022/06/03 01:15:46;;;;;;;2.60;2.20;;;12.60;99.90;;;;;;4877523;29;20195;-81
2022/06/03 01:18:30;;;;;;;4.93;3.17;;;12.60;99.90;;;;;;4877101;29;20519;-80
2022/06/03 01:21:19;;;;;;;3.97;2.20;;;12.60;99.90;;;;;;4876893;29;20235;-80
2022/06/03 01:24:11;;;;;;;3.13;2.38;;;12.60;99.90;;;;;;4874335;29;20204;-81
2022/06/03 01:27:04;;;;;;;5.82;2.97;;;12.60;99.90;;;;;;4877199;29;20538;-81
2022/06/03 01:29:33;;;;;;;7.70;2.63;;;12.60;99.90;;;;;;4894127;29;20184;-82
2022/06/03 01:32:24;;;;;;;2.90;2.60;;;12.60;99.90;;;;;;4876885;29;20184;-81
2022/06/03 01:35:31;;;;;;;6.15;2.95;;;12.60;99.90;;;;;;4879137;29;20293;-80
2022/06/03 01:38:32;;;;;;;3.00;2.20;;;12.50;99.90;;;;;;4877788;29;20182;-81
2022/06/03 01:41:20;;;;;;;2.50;2.30;;;12.50;99.90;;;;;;4864343;29;20286;-81
2022/06/03 01:44:16;;;;;;;4.70;2.70;;;12.50;99.90;;;;;;4879261;29;20207;-80
2022/06/03 01:47:23;;;;;;;4.00;3.00;;;12.50;99.90;;;;;;4877511;29;20175;-80
2022/06/03 01:50:21;;;;;;;3.20;2.60;;;12.50;99.90;;;;;;4865593;29;20195;-81
2022/06/03 01:53:03;;;;;;;3.70;2.60;;;12.50;99.90;;;;;;4877862;29;20656;-79
2022/06/03 01:56:00;;;;;;;3.20;2.90;;;12.50;99.90;;;;;;4877243;29;20522;-81
2022/06/03 01:59:02;;;;;;;3.47;3.08;;;12.50;99.90;;;;;;4876889;29;20191;-81
2022/06/03 02:01:46;;;;;;;3.60;2.70;;;12.50;99.90;;;;;;4902476;23;1022116;-84
2022/06/03 02:04:32;;;;;;;4.82;2.75;;;12.50;99.90;;;;;;4951975;28;20693;-83
2022/06/03 02:07:17;;;;;;;3.38;2.25;;;12.50;99.90;;;;;;4955372;28;20181;-84
2022/06/03 02:10:04;;;;;;;3.10;2.63;;;12.50;99.90;;;;;;4951941;28;20180;-85
2022/06/03 02:13:13;;;;;;;2.50;2.30;;;12.50;99.90;;;;;;4919248;29;20205;-84
2022/06/03 02:16:01;;;;;;;5.80;2.65;;;12.50;99.90;;;;;;4933949;29;20521;-82
2022/06/03 02:18:48;;;;;;;2.60;2.40;;;12.50;99.90;;;;;;4927873;29;20208;-81
2022/06/03 02:21:55;;;;;;;2.92;2.72;;;12.40;99.90;;;;;;4934346;29;20248;-82
2022/06/03 02:24:49;;;;;;;2.97;2.20;;;12.20;99.90;;;;;;4903427;29;20231;-84
2022/06/03 02:27:39;;;;;;;2.60;2.30;;;12.00;99.90;;;;;;4940801;28;20724;-83
2022/06/03 02:30:50;;;;;;;2.95;2.65;;;12.00;99.90;;;;;;4948559;28;20185;-83
2022/06/03 02:33:36;;;;;;;3.22;2.90;;;12.00;99.90;;;;;;4933573;29;20185;-83
2022/06/03 02:36:11;;;;;;;3.70;2.92;;;12.00;99.90;;;;;;4936197;29;20358;-86
2022/06/03 02:39:14;;;;;;;3.58;2.30;;;12.00;99.90;;;;;;4938062;29;20193;-82
2022/06/03 02:41:58;;;;;;;2.65;2.30;;;11.90;99.90;;;;;;4931098;29;20203;-84
2022/06/03 02:44:48;;;;;;;3.13;2.25;;;11.90;99.90;;;;;;4922722;29;20212;-83
2022/06/03 02:47:41;;;;;;;3.83;3.05;;;11.90;99.90;;;;;;4934773;29;20195;-84
2022/06/03 02:50:33;;;;;;;7.97;3.00;;;11.90;99.90;;;;;;4932049;29;20264;-85
2022/06/03 02:53:08;;;;;;;2.78;2.20;;;12.00;99.90;;;;;;4931355;29;20189;-82
2022/06/03 02:56:15;;;;;;;3.58;2.40;;;12.00;99.90;;;;;;4933400;29;20649;-84
2022/06/03 02:58:46;;;;;;;7.10;2.53;;;12.00;99.90;;;;;;4934223;29;20189;-85
2022/06/03 03:01:27;;;;;;;2.95;2.50;;;12.10;99.90;;;;;;4922022;29;20209;-83
2022/06/03 03:04:08;;;;;;;4.40;3.30;;;12.20;99.90;;;;;;4933053;29;20265;-84
2022/06/03 03:07:15;;;;;;;3.17;2.88;;;12.20;99.90;;;;;;4929954;29;20189;-82
2022/06/03 03:10:00;;;;;;;4.82;2.55;;;12.10;99.90;;;;;;4926542;29;20315;-84
2022/06/03 03:12:46;;;;;;;3.95;2.85;;;12.00;99.90;;;;;;4931295;28;20399;-83
2022/06/03 03:15:22;;;;;;;3.58;2.72;;;12.00;99.90;;;;;;4928698;29;20197;-83
2022/06/03 03:18:09;;;;;;;2.78;2.58;;;12.00;99.90;;;;;;4929029;29;21333;-84
2022/06/03 03:20:53;;;;;;;11.68;2.95;;;12.00;99.90;;;;;;4932451;29;20197;-83
2022/06/03 03:23:40;;;;;;;4.80;2.85;;;12.20;99.90;;;;;;4933757;29;20201;-83
2022/06/03 03:26:31;;;;;;;3.13;2.85;;;12.30;99.90;;;;;;4923715;29;20260;-83
2022/06/03 03:29:24;;;;;;;4.10;3.00;;;12.20;99.90;;;;;;4930718;29;20185;-83
2022/06/03 03:31:58;;;;;;;6.28;3.22;;;12.20;99.90;;;;;;4931358;29;20247;-84
2022/06/03 03:34:36;;;;;;;3.25;2.85;;;12.20;99.90;;;;;;4934452;29;20641;-84
2022/06/03 03:37:29;;;;;;;4.47;2.70;;;12.30;99.90;;;;;;4929719;29;20244;-82
2022/06/03 03:40:32;;;;;;;4.78;2.83;;;12.30;99.90;;;;;;4920146;29;20204;-83
2022/06/03 03:43:46;;;;;;;4.15;3.30;;;12.20;99.90;;;;;;4931739;29;20208;-84
2022/06/03 03:46:53;;;;;;;2.70;2.25;;;12.30;99.90;;;;;;4930580;29;20209;-82
2022/06/03 03:49:34;;;;;;;5.15;2.65;;;12.40;99.90;;;;;;4931312;29;20268;-84
2022/06/03 03:52:21;;;;;;;4.85;2.70;;;12.50;99.90;;;;;;4931776;29;20211;-83
2022/06/03 03:55:04;;;;;;;2.90;2.40;;;12.60;99.90;;;;;;4932710;29;20195;-83
2022/06/03 03:57:42;;;;;;;2.80;1.90;;;12.70;99.90;;;;;;4932062;29;20181;-83
2022/06/03 04:00:12;;;;;;;3.45;2.70;;;12.80;99.90;;;;;;4930919;29;20189;-84
2022/06/03 04:03:27;;;;;;;2.80;2.53;;;12.90;99.90;;;;;;4923195;29;20236;-81
2022/06/03 04:05:58;;;;;;;6.25;2.35;;;13.00;99.90;;;;;;4932176;29;20219;-83
2022/06/03 04:08:35;;;;;;;5.88;2.50;;;13.20;99.90;;;;;;4932209;29;20254;-84
2022/06/03 04:11:38;;;;;;;4.65;3.05;;;13.10;99.90;;;;;;4930815;29;20201;-83
2022/06/03 04:14:35;;;;;;;3.25;2.58;;;13.20;99.90;;;;;;4943911;28;20732;-84
2022/06/03 04:17:50;;;;;;;4.53;2.65;;;13.40;99.90;;;;;;4940833;28;20224;-83
2022/06/03 04:20:46;;;;;;;3.20;2.65;;;13.60;99.90;;;;;;4904290;29;20268;-82
2022/06/03 04:23:27;;;;;;;4.80;2.65;;;13.40;99.90;;;;;;4930820;29;20213;-81
2022/06/03 04:26:31;;;;;;;4.95;2.60;;;13.50;99.90;;;;;;4932148;29;20556;-83
2022/06/03 04:29:39;;;;;;;4.05;3.15;;;13.70;99.90;;;;;;4889968;29;20215;-85
2022/06/03 04:32:04;;;;;;;2.80;2.60;;;13.60;99.90;;;;;;4877546;29;20708;-80
2022/06/03 04:34:46;;;;;;;2.80;2.60;;;13.50;99.90;;;;;;4926245;28;20291;-82
2022/06/03 04:37:37;;;;;;;4.47;2.55;;;13.70;99.90;;;;;;4929086;29;20189;-80
2022/06/03 04:40:21;;;;;;;2.95;2.65;;;13.90;99.90;;;;;;4929193;29;20185;-84
2022/06/03 04:43:24;;;;;;;2.95;2.65;;;14.50;99.90;;;;;;4927749;29;20337;-81
2022/06/03 04:46:02;;;;;;;9.50;2.83;;;15.40;99.90;;;;;;4925486;29;20182;-83
2022/06/03 04:48:50;;;;;;;2.20;2.00;;;16.60;99.90;;;;;;4930849;29;20227;-83
2022/06/03 04:51:46;;;;;;;2.97;2.30;;;18.20;99.90;;;;;;4929641;29;20468;-81
2022/06/03 04:54:53;;;;;;;4.60;2.13;;;20.40;99.90;;;;;;4928569;29;20445;-81
2022/06/03 04:57:43;;;;;;;3.83;2.10;;;23.00;99.90;;;;;;4898844;29;21669;-82
2022/06/03 05:00:40;;;;;;;4.13;2.20;;;25.50;99.90;;;;;;4919200;29;20871;-88
2022/06/03 05:03:33;;;;;;;4.87;2.37;;;27.30;93.00;;;;;;4921595;29;20480;-87
2022/06/03 05:06:27;;;;;;;7.73;2.20;;;29.80;82.30;;;;;;4924966;29;22267;-86
2022/06/03 05:09:11;;;;;;;2.17;1.97;;;31.50;67.00;;;;;;4939891;28;21083;-86
2022/06/03 05:12:02;;;;;;;4.20;2.90;;;32.90;58.60;;;;;;4940100;28;20465;-87
2022/06/03 05:15:05;;;;;;;3.73;2.40;;;34.30;50.80;;;;;;4926180;29;20453;-86
2022/06/03 05:17:43;;;;;;;4.60;2.90;;;35.20;45.70;;;;;;4927577;29;20607;-87
2022/06/03 05:20:30;;;;;;;5.00;4.60;;;37.10;40.80;;;;;;4944416;28;20503;-86
2022/06/03 05:23:36;;;;;;;7.37;6.90;;;38.60;38.40;;;;;;4927851;29;20475;-83
2022/06/03 05:26:29;;;;;;;9.13;8.50;;;38.60;38.20;;;;;;4929171;29;20417;-86
2022/06/03 05:29:28;;;;;;;8.93;8.10;;;37.30;34.60;;;;;;4942722;28;20449;-86
2022/06/03 05:31:53;;;;;;;7.30;6.87;;;34.20;36.10;;;;;;4924153;29;20462;-86
2022/06/03 05:34:44;;;;;;;7.87;7.40;;;30.50;40.10;;;;;;4923139;29;20500;-86
2022/06/03 05:37:18;;;;;;;2.50;2.30;;;28.90;42.00;;;;;;4916341;29;20747;-88
2022/06/03 05:40:06;;;;;;;3.40;2.40;;;28.60;42.80;;;;;;4939959;28;20526;-86
2022/06/03 05:42:58;;;;;;;2.80;2.60;;;27.30;45.20;;;;;;4916720;29;20509;-87
2022/06/03 05:45:59;;;;;;;2.60;2.37;;;26.60;47.30;;;;;;4933943;29;20445;-87
2022/06/03 05:48:46;;;;;;;4.40;3.57;;;27.20;49.00;;;;;;4921534;29;20445;-87
2022/06/03 05:51:35;;;;;;;4.53;2.47;;;29.80;45.90;;;;;;4930104;28;20466;-87
2022/06/03 05:54:26;;;;;;;4.50;2.47;;;30.00;46.40;;;;;;4928002;29;20466;-87
2022/06/03 05:57:36;;;;;;;4.10;2.60;;;30.90;45.30;;;;;;4928074;29;20444;-87
2022/06/03 06:00:37;;;;;;;7.57;2.90;;;33.90;41.70;;;;;;4920686;29;20450;-88
2022/06/03 06:03:22;;;;;;;5.50;3.60;;;36.40;40.00;;;;;;4923714;29;20567;-88
2022/06/03 06:06:19;;;;;;;8.47;7.97;;;36.40;40.40;;;;;;4924832;29;21049;-87
2022/06/03 06:08:50;;;;;;;9.33;8.70;;;37.90;37.20;;;;;;4889420;29;20951;-86
2022/06/03 06:11:30;;;;;;;10.57;9.97;;;38.50;36.10;;;;;;4941541;28;20517;-89
2022/06/03 06:14:07;;;;;;;13.50;12.40;;;39.70;34.90;;;;;;4917759;29;20434;-85
2022/06/03 06:16:40;;;;;;;12.63;11.80;;;39.70;32.90;;;;;;4926754;29;20436;-88
2022/06/03 06:19:39;;;;;;;12.73;11.93;;;38.10;33.40;;;;;;4926206;29;20448;-86
2022/06/03 06:22:05;;;;;;;12.33;11.47;;;;;;;;;;4917271;29;20463;-86
2022/06/03 06:24:34;;;;;;;12.17;11.40;;;38.80;32.60;;;;;;4939933;28;20475;-87
2022/06/03 06:27:36;;;;;;;11.50;10.80;;;38.80;33.20;;;;;;4917475;29;20446;-87
2022/06/03 06:30:12;;;;;;;12.50;11.40;;;39.10;33.40;;;;;;4927522;29;20436;-86
2022/06/03 06:33:11;;;;;;;11.60;10.63;;;38.30;33.40;;;;;;4924522;29;20469;-87
2022/06/03 06:36:05;;;;;;;11.03;10.43;;;36.90;34.90;;;;;;4927842;29;20433;-87
2022/06/03 06:38:56;;;;;;;12.63;11.50;;;36.90;35.10;;;;;;4912049;29;20532;-86
2022/06/03 06:42:11;;;;;;;12.57;11.77;;;36.80;35.40;;;;;;4923034;29;20456;-88
2022/06/03 06:44:58;;;;;;;10.97;10.47;;;37.30;35.20;;;;;;4860422;29;20585;-87
2022/06/03 06:47:47;;;;;;;11.33;10.73;;;38.30;35.80;;;;;;4865289;29;20442;-86
2022/06/03 06:50:32;;;;;;;12.63;12.03;;;39.20;34.10;;;;;;4912458;29;20439;-87
2022/06/03 06:53:17;;;;;;;12.43;11.60;;;40.20;33.90;;;;;;4925275;29;20445;-86
2022/06/03 06:56:09;;;;;;;13.37;12.40;;;40.80;33.20;;;;;;4919122;29;20446;-86
2022/06/03 06:58:46;;;;;;;13.17;12.13;;;39.50;33.20;;;;;;4937631;28;20435;-87
2022/06/03 07:01:17;;;;;;;11.77;11.20;;;40.00;34.30;;;;;;4929922;29;20475;-86
2022/06/03 07:03:43;;;;;;;12.93;12.20;;;;;;;;;;4920742;29;20831;-88
2022/06/03 07:06:38;;;;;;;15.30;14.23;;;40.90;32.70;;;;;;4939541;28;20758;-88
2022/06/03 07:09:10;;;;;;;13.87;13.17;;;41.60;32.50;;;;;;4928157;29;20204;-86
2022/06/03 07:11:55;;;;;;;13.77;13.00;;;41.40;32.00;;;;;;4929367;29;20456;-86
2022/06/03 07:14:34;;;;;;;13.80;12.90;;;40.50;33.00;;;;;;4928047;29;20949;-86
2022/06/03 07:20:11;;;;;;;13.47;12.43;;;38.70;34.80;;;;;;4924543;29;20444;-87
2022/06/03 07:22:48;;;;;;;12.83;11.93;;;36.90;35.50;;;;;;4922210;29;20509;-88
2022/06/03 07:25:20;;;;;;;11.03;10.43;;;36.80;37.60;;;;;;4925983;29;20458;-86
2022/06/03 07:28:16;;;;;;;13.40;12.60;;;36.50;38.20;;;;;;4930583;28;21021;-85
2022/06/03 07:31:06;;;;;;;12.67;11.87;;;36.40;38.50;;;;;;4921714;28;20473;-89
2022/06/03 07:33:31;;;;;;;13.40;11.53;;;35.50;37.80;;;;;;4917709;29;20894;-86
2022/06/03 07:36:21;;;;;;;12.50;11.80;;;34.90;40.00;;;;;;4938422;28;20898;-85
2022/06/03 07:39:26;;;;;;;11.53;10.63;;;34.70;40.10;;;;;;4928738;29;20190;-88
2022/06/03 07:42:02;;;;;;;12.07;10.93;;;34.80;39.60;;;;;;4914708;29;20520;-87
2022/06/03 07:44:43;;;;;;;12.03;10.60;;;35.20;41.10;;;;;;4917447;29;20469;-88
2022/06/03 07:47:11;;;;;;;12.23;11.23;;;35.70;41.20;;;;;;4926909;29;20454;-87
2022/06/03 07:49:38;;;;;;;12.60;11.50;;;36.00;40.90;;;;;;4919521;29;20820;-87
2022/06/03 07:52:12;;;;;;;12.43;11.53;;;36.50;41.60;;;;;;4930488;28;21006;-86
2022/06/03 07:54:50;;;;;;;11.00;10.30;;;36.30;40.20;;;;;;4916199;29;20445;-87
2022/06/03 07:57:22;;;;;;;11.33;10.63;;;35.10;40.70;;;;;;4913823;29;20437;-87
2022/06/03 07:59:48;;;;;;;14.03;10.30;;;33.10;43.60;;;;;;4916625;29;20540;-88
2022/06/03 08:02:17;;;;;;;13.83;8.60;;;32.90;44.90;;;;;;4919246;29;20476;-86
2022/06/03 08:04:45;;;;;;;9.53;8.93;;;32.70;45.20;;;;;;4913710;29;20472;-88
2022/06/03 08:13:00;;;;;;;9.50;8.90;;;34.00;45.20;;;;;;4920071;29;20454;-85
2022/06/03 08:15:49;;;;;;;9.83;9.00;;;33.40;45.80;;;;;;4943213;28;20560;-85
2022/06/03 08:18:17;;;;;;;7.37;6.17;;;31.70;46.90;;;;;;4923717;29;20484;-88
2022/06/03 08:20:52;;;;;;;6.57;4.87;;;30.30;49.20;;;;;;4922877;29;20566;-86
2022/06/03 08:23:19;;;;;;;10.13;5.07;;;29.40;51.00;;;;;;4921244;29;20512;-86
2022/06/03 08:25:49;;;;;;;5.30;4.90;;;29.10;53.30;;;;;;4931828;28;20533;-87
2022/06/03 08:28:20;;;;;;;5.37;4.90;;;29.80;53.80;;;;;;4925440;29;20441;-87
2022/06/03 08:30:49;;;;;;;9.50;5.67;;;28.30;55.20;;;;;;4920846;29;20551;-85
2022/06/03 08:33:21;;;;;;;8.20;5.40;;;28.00;56.50;;;;;;4921912;29;20449;-86
2022/06/03 08:35:47;;;;;;;6.23;5.60;;;27.30;57.30;;;;;;4918538;29;20444;-85
2022/06/03 08:38:20;;;;;;;8.67;4.90;;;27.40;58.40;;;;;;4918891;29;20481;-86
2022/06/03 08:41:00;;;;;;;7.10;5.80;;;28.30;58.50;;;;;;4919052;29;20487;-86
2022/06/03 08:43:39;;;;;;;6.13;4.87;;;29.10;57.00;;;;;;4916912;29;20468;-87
2022/06/03 08:46:20;;;;;;;8.07;4.87;;;30.50;54.70;;;;;;4938328;28;20435;-88
2022/06/03 08:48:49;;;;;;;9.50;7.30;;;32.50;53.80;;;;;;4918520;29;21027;-86
2022/06/03 08:51:25;;;;;;;9.67;4.53;;;33.10;50.50;;;;;;4924975;29;20462;-86
2022/06/03 08:54:23;;;;;;;8.27;7.67;;;33.40;51.00;;;;;;4913367;29;20447;-85
2022/06/03 08:56:51;;;;;;;10.47;9.60;;;34.70;48.60;;;;;;4933918;28;20959;-83
2022/06/03 08:59:36;;;;;;;11.30;10.50;;;36.40;46.00;;;;;;4915286;29;20442;-86
2022/06/03 09:02:18;;;;;;;10.67;9.77;;;36.40;45.20;;;;;;4925767;29;20483;-84
2022/06/03 09:04:56;;;;;;;11.90;10.30;;;37.10;45.70;;;;;;4918778;29;20472;-87
2022/06/03 09:07:38;;;;;;;12.00;11.13;;;36.60;44.20;;;;;;4928273;29;20536;-85
2022/06/03 09:10:28;;;;;;;14.20;12.70;;;37.00;44.40;;;;;;4921780;29;20494;-87
2022/06/03 09:13:00;;;;;;;13.43;12.50;;;36.60;43.70;;;;;;4926034;29;20469;-86
2022/06/03 09:15:29;;;;;;;12.10;11.30;;;36.60;42.80;;;;;;4920474;29;21183;-88
2022/06/03 09:18:14;;;;;;;12.10;10.90;;;36.60;43.40;;;;;;4923903;29;20444;-85
2022/06/03 09:20:52;;;;;;;11.33;10.40;;;36.20;43.70;;;;;;4921670;29;21385;-87
2022/06/03 09:23:20;;;;;;;11.30;10.60;;;35.10;44.90;;;;;;4922082;29;20470;-87
2022/06/03 09:25:51;;;;;;;10.50;9.90;;;35.10;45.50;;;;;;4921478;29;20452;-87
2022/06/03 09:28:28;;;;;;;12.30;11.50;;;35.60;46.40;;;;;;4924740;29;20826;-88
2022/06/03 09:30:55;;;;;;;12.33;11.47;;;36.00;45.50;;;;;;4914838;29;20455;-86
2022/06/03 09:33:22;;;;;;;12.83;11.80;;;34.90;43.80;;;;;;4927243;29;20811;-85
2022/06/03 09:35:51;;;;;;;12.97;11.90;;;35.30;44.60;;;;;;4940170;28;20639;-87
2022/06/03 09:38:22;;;;;;;12.80;11.80;;;35.00;45.50;;;;;;4923599;29;20451;-87
2022/06/03 09:40:50;;;;;;;13.00;12.00;;;33.70;46.10;;;;;;4926380;29;20462;-89
2022/06/03 09:43:20;;;;;;;12.50;11.70;;;33.20;47.10;;;;;;4929800;29;20470;-86
2022/06/03 09:45:50;;;;;;;12.70;11.60;;;33.60;47.80;;;;;;4922438;29;20968;-85
2022/06/03 09:48:21;;;;;;;12.13;11.20;;;33.90;47.00;;;;;;4925213;29;20443;-86
2022/06/03 09:50:50;;;;;;;11.83;10.60;;;33.80;47.50;;;;;;4929421;28;20470;-85
2022/06/03 09:53:21;;;;;;;11.77;10.93;;;34.60;46.70;;;;;;4922634;29;20454;-85
2022/06/03 09:55:53;;;;;;;11.70;10.80;;;34.70;46.90;;;;;;4932267;28;20455;-86
2022/06/03 09:58:23;;;;;;;17.50;10.83;;;35.90;45.70;;;;;;4926431;29;20446;-85
2022/06/03 10:00:53;;;;;;;12.47;11.77;;;37.00;45.00;;;;;;4926259;29;20831;-86
2022/06/03 10:03:19;;;;;;;13.30;12.20;;;;;;;;;;4927025;29;21683;-85
2022/06/03 10:05:51;;;;;;;14.40;13.40;;;37.40;42.50;;;;;;4924626;29;20483;-86
2022/06/03 10:08:20;;;;;;;12.60;11.80;;;38.70;42.40;;;;;;4923569;29;20465;-86
2022/06/03 10:13:34;;;;;;;13.13;12.33;;;36.20;42.20;;;;;;4927795;29;20823;-85
2022/06/03 10:16:00;;;;;;;12.73;11.93;;;35.10;44.40;;;;;;4920206;29;20451;-86
2022/06/03 10:18:49;;;;;;;12.90;11.93;;;35.50;44.80;;;;;;4927187;29;20541;-87
2022/06/03 10:21:15;;;;;;;12.30;11.50;;;;;;;;;;4914514;29;20907;-86
2022/06/03 10:23:44;;;;;;;11.73;10.90;;;35.30;45.30;;;;;;4917964;29;20473;-88
2022/06/03 10:26:35;;;;;;;13.43;12.63;;;35.30;45.70;;;;;;4931847;29;20207;-88
2022/06/03 10:29:15;;;;;;;12.17;11.30;;;34.40;44.80;;;;;;4923851;29;20447;-86
2022/06/03 10:31:41;;;;;;;11.83;11.00;;;32.90;47.30;;;;;;4922121;29;20851;-86
2022/06/03 10:34:11;;;;;;;10.83;10.03;;;32.40;49.00;;;;;;4924324;29;20449;-86
2022/06/03 10:36:43;;;;;;;9.50;8.80;;;31.60;50.50;;;;;;4928327;29;20223;-87
2022/06/03 10:39:14;;;;;;;10.77;8.40;;;31.20;51.60;;;;;;4922231;29;20463;-86
2022/06/03 10:41:43;;;;;;;8.73;8.17;;;30.90;52.00;;;;;;4921707;29;20493;-87
2022/06/03 10:44:13;;;;;;;8.87;8.27;;;31.20;52.10;;;;;;4927030;29;20916;-87
2022/06/03 10:46:57;;;;;;;8.37;7.57;;;31.70;52.00;;;;;;4920780;29;20442;-85
2022/06/03 10:49:25;;;;;;;8.17;7.47;;;31.70;52.00;;;;;;4936733;29;20437;-87
2022/06/03 11:02:53;;;;;;;8.40;6.63;;;31.20;53.40;;;;;;4932908;29;20452;-86
2022/06/03 11:05:23;;;;;;;8.40;6.87;;;31.20;54.80;;;;;;4930099;29;20441;-86
2022/06/03 11:08:10;;;;;;;7.57;6.97;;;31.60;54.50;;;;;;4929738;29;20260;-86
2022/06/03 11:10:45;;;;;;;7.70;7.10;;;31.50;54.00;;;;;;4932133;29;20461;-86
2022/06/03 11:13:13;;;;;;;10.80;7.03;;;30.50;56.00;;;;;;4930366;29;20441;-86
2022/06/03 11:15:40;;;;;;;7.30;6.70;;;30.00;55.00;;;;;;4928795;29;20436;-86
2022/06/03 11:18:14;;;;;;;6.83;6.13;;;30.00;55.40;;;;;;4928721;29;20439;-87
2022/06/03 11:20:40;;;;;;;6.53;5.70;;;29.90;56.50;;;;;;4920389;29;20456;-85
2022/06/03 11:23:08;;;;;;;6.70;6.20;;;29.50;57.80;;;;;;4922281;29;20461;-85
2022/06/03 11:25:37;;;;;;;6.43;6.03;;;28.90;59.40;;;;;;4933866;29;20440;-87
2022/06/03 11:28:06;;;;;;;4.33;3.90;;;28.70;59.50;;;;;;4933513;29;20440;-86
2022/06/03 11:30:46;;;;;;;5.07;3.70;;;28.80;59.20;;;;;;4925870;29;20446;-85
2022/06/03 11:33:27;;;;;;;4.80;3.67;;;28.80;59.20;;;;;;4934201;29;20431;-87
2022/06/03 11:36:15;;;;;;;4.50;3.73;;;28.30;61.10;;;;;;4947735;28;20966;-85
2022/06/03 11:38:49;;;;;;;4.77;4.20;;;28.10;63.50;;;;;;4931088;29;20450;-86
2022/06/03 11:41:46;;;;;;;4.60;4.20;;;28.20;62.90;;;;;;4932121;29;20899;-88
2022/06/03 11:44:18;;;;;;;6.70;5.20;;;28.10;63.70;;;;;;4928728;29;21287;-85
2022/06/03 11:46:52;;;;;;;4.20;3.90;;;28.30;63.30;;;;;;4933122;29;20458;-86
2022/06/03 11:49:20;;;;;;;10.00;3.57;;;28.50;63.80;;;;;;4931846;29;20457;-86
2022/06/03 11:51:47;;;;;;;3.63;3.27;;;28.30;63.90;;;;;;4930138;29;20463;-87
2022/06/03 11:54:16;;;;;;;4.03;3.50;;;28.10;67.30;;;;;;4929147;29;20899;-84
2022/06/03 11:56:44;;;;;;;6.83;4.23;;;28.10;67.90;;;;;;4928889;29;20461;-84
2022/06/03 11:59:23;;;;;;;5.83;4.10;;;28.10;65.10;;;;;;4928391;29;20452;-86
2022/06/03 12:01:48;;;;;;;4.83;4.33;;;28.50;64.50;;;;;;4933470;29;20484;-88
2022/06/03 12:04:49;;;;;;;5.17;4.20;;;28.50;63.30;;;;;;4927140;29;20888;-86
2022/06/03 12:07:50;;;;;;;4.47;4.07;;;28.50;63.50;;;;;;4926850;29;20181;-86
2022/06/03 12:10:48;;;;;;;4.83;3.83;;;28.40;63.70;;;;;;4914043;29;20899;-86
2022/06/03 12:13:21;;;;;;;5.53;4.00;;;28.50;64.20;;;;;;4926380;29;20459;-85
2022/06/03 12:15:58;;;;;;;7.57;4.00;;;28.60;63.40;;;;;;4930013;29;21022;-87
2022/06/03 12:18:34;;;;;;;7.37;3.97;;;29.00;63.90;;;;;;4930486;29;20444;-86
2022/06/03 12:21:06;;;;;;;5.23;3.93;;;29.50;61.90;;;;;;4928410;29;20471;-85
2022/06/03 12:23:37;;;;;;;4.60;3.80;;;30.20;60.30;;;;;;4924362;29;20472;-87
2022/06/03 12:26:08;;;;;;;4.30;3.90;;;30.10;59.40;;;;;;4926716;29;20436;-86
2022/06/03 12:28:36;;;;;;;6.17;3.40;;;30.10;58.70;;;;;;4924352;29;21505;-86
2022/06/03 12:31:08;;;;;;;4.60;3.90;;;30.40;59.00;;;;;;4926603;29;20471;-87
2022/06/03 12:33:48;;;;;;;5.30;3.80;;;31.10;58.60;;;;;;4926482;29;20495;-85
2022/06/03 12:36:32;;;;;;;6.67;3.10;;;31.60;57.10;;;;;;4922318;29;20445;-86
2022/06/03 12:39:01;;;;;;;7.37;4.00;;;32.30;57.30;;;;;;4941496;28;20504;-88
2022/06/03 12:41:45;;;;;;;6.77;6.10;;;32.70;54.60;;;;;;4915529;29;20496;-85
2022/06/03 12:44:35;;;;;;;7.13;6.63;;;32.70;54.80;;;;;;4925555;29;20975;-86
2022/06/03 12:47:21;;;;;;;7.13;6.50;;;32.80;53.90;;;;;;4924695;29;20446;-87
2022/06/03 12:49:50;;;;;;;6.93;6.40;;;33.00;54.30;;;;;;4941940;28;20460;-87
2022/06/03 12:52:21;;;;;;;7.33;6.83;;;33.00;54.90;;;;;;4923796;29;20461;-86
2022/06/03 12:55:09;;;;;;;7.53;6.83;;;32.80;54.80;;;;;;4923129;29;20455;-85
2022/06/03 12:57:54;;;;;;;8.17;7.37;;;32.90;53.60;;;;;;4924056;29;20440;-85
2022/06/03 13:00:20;;;;;;;8.83;8.20;;;;;;;;;;4924483;29;20486;-87
2022/06/03 13:03:26;;;;;;;8.53;7.83;;;32.70;53.30;;;;;;4920172;29;20462;-85
2022/06/03 13:05:56;;;;;;;7.57;7.07;;;32.20;54.60;;;;;;4923802;29;20433;-85
2022/06/03 13:08:28;;;;;;;8.03;7.43;;;31.90;55.30;;;;;;4914265;29;20448;-87
2022/06/03 13:10:56;;;;;;;8.00;7.30;;;31.90;55.90;;;;;;4942630;28;20485;-86
2022/06/03 13:13:33;;;;;;;8.23;7.73;;;31.70;56.00;;;;;;4926757;29;20446;-85
2022/06/03 13:16:17;;;;;;;8.33;7.83;;;31.60;56.10;;;;;;4933901;29;20439;-86
2022/06/03 13:18:49;;;;;;;7.43;6.97;;;31.50;56.40;;;;;;4923792;29;20449;-85
2022/06/03 13:21:28;;;;;;;7.60;6.97;;;31.80;56.80;;;;;;4926024;29;20467;-87
2022/06/03 13:23:56;;;;;;;7.90;7.20;;;31.70;57.10;;;;;;4929332;29;20578;-87
2022/06/03 13:26:23;;;;;;;7.77;7.17;;;;;;;;;;4924694;29;20431;-85
2022/06/03 13:28:56;;;;;;;8.30;7.50;;;31.40;56.60;;;;;;4926208;29;20429;-84
2022/06/03 13:31:40;;;;;;;7.53;6.93;;;31.00;57.40;;;;;;4922306;29;20545;-86
2022/06/03 13:34:14;;;;;;;4.63;4.23;;;30.40;58.90;;;;;;4927870;29;21738;-87
2022/06/03 13:36:44;;;;;;;5.13;3.77;;;30.20;60.30;;;;;;4927551;29;20752;-85
2022/06/03 13:39:23;;;;;;;6.23;3.43;;;30.00;60.00;;;;;;4918671;29;21006;-85
2022/06/03 13:45:01;;;;;;;7.23;3.67;;;29.30;64.60;;;;;;4923142;29;20503;-85
2022/06/03 13:47:51;;;;;;;4.80;4.03;;;29.00;65.30;;;;;;4923700;29;20836;-86
2022/06/03 13:50:23;;;;;;;4.60;4.20;;;29.50;65.40;;;;;;4923941;29;20800;-86
2022/06/03 13:52:55;;;;;;;4.67;4.23;;;29.60;66.20;;;;;;4916195;29;20458;-85
2022/06/03 13:55:24;;;;;;;4.57;3.70;;;29.80;67.60;;;;;;4919259;29;20867;-85
2022/06/03 13:58:00;;;;;;;7.47;4.00;;;29.70;66.10;;;;;;4921808;29;20456;-87
2022/06/03 14:00:39;;;;;;;5.93;4.67;;;29.10;68.70;;;;;;4919375;29;20452;-86
2022/06/03 14:03:08;;;;;;;7.30;3.77;;;29.10;70.00;;;;;;4925012;29;20468;-81
2022/06/03 14:05:49;;;;;;;7.47;4.00;;;29.40;69.40;;;;;;4913726;29;20436;-80
2022/06/03 14:08:42;;;;;;;4.53;4.13;;;29.30;67.80;;;;;;4911716;29;20436;-82
2022/06/03 14:11:15;;;;;;;7.53;3.87;;;29.80;69.60;;;;;;4920502;29;21927;-82
2022/06/03 14:13:53;;;;;;;4.50;4.10;;;30.30;69.70;;;;;;4922924;29;20453;-81
2022/06/03 14:16:49;;;;;;;4.67;4.30;;;30.60;67.00;;;;;;4921882;29;20880;-82
2022/06/03 14:19:32;;;;;;;5.00;3.90;;;30.40;66.00;;;;;;4913479;29;20475;-82
2022/06/03 14:22:03;;;;;;;4.27;3.97;;;30.20;68.10;;;;;;4921428;28;20547;-85
2022/06/03 14:24:38;;;;;;;4.93;4.07;;;29.90;68.00;;;;;;4921912;29;20479;-82